This is the latest recevied weather packets stored in our database for station/object VK2BLR. If no packets are shown the sender has not sent any weather packets the latest 10 day(s).
| Time | Temp. | Humidity | Pressure | Rain* | Wind** | Luminosity | Snow |
|---|---|---|---|---|---|---|---|
| 1777938813 | 18.89° C | 60% | 1018.9 hPa | 0 mm | - | - | - |
| 1777937913 | 18.33° C | 60% | 1018.7 hPa | 0 mm | - | - | - |
| 1777937013 | 17.78° C | 61% | 1018.5 hPa | 0 mm | - | - | - |
| 1777936113 | 17.78° C | 59% | 1018.7 hPa | 0 mm | - | - | - |
| 1777935213 | 18.89° C | 60% | 1018.5 hPa | 0 mm | - | - | - |
| 1777934313 | 18.89° C | 62% | 1018.5 hPa | 0 mm | - | - | - |
| 1777933413 | 17.78° C | 69% | 1018.2 hPa | 0 mm | - | - | - |
| 1777932514 | 16.11° C | 79% | 1017.8 hPa | 0 mm | - | - | - |
| 1777931613 | 13.33° C | 87% | 1017.7 hPa | 0 mm | - | - | - |
| 1777930714 | 10.56° C | 92% | 1017.6 hPa | 0 mm | - | - | - |
| 1777929814 | 8.33° C | 90% | 1017.5 hPa | 0 mm | - | - | - |
| 1777928913 | 7.78° C | 90% | 1017.2 hPa | 0 mm | - | - | - |
| 1777928014 | 7.78° C | 89% | 1017.1 hPa | 0 mm | - | - | - |
| 1777927113 | 7.78° C | 89% | 1016.9 hPa | 0 mm | - | - | - |
| 1777926213 | 7.78° C | 89% | 1016.8 hPa | 0 mm | - | - | - |
| 1777925314 | 8.33° C | 89% | 1016.7 hPa | 0 mm | - | - | - |
| 1777924413 | 8.33° C | 89% | 1016.5 hPa | 0 mm | - | - | - |
| 1777923513 | 8.33° C | 89% | 1016.5 hPa | 0 mm | - | - | - |
| 1777922613 | 8.33° C | 89% | 1016.3 hPa | 0 mm | - | - | - |
| 1777921714 | 8.33° C | 89% | 1016.1 hPa | 0 mm | - | - | - |
| 1777920814 | 8.33° C | 89% | 1016.2 hPa | 0 mm | - | - | - |
| 1777919912 | 8.33° C | 89% | 1016 hPa | 0 mm | - | - | - |
| 1777919014 | 8.33° C | 89% | 1016 hPa | 0 mm | - | - | - |
| 1777918113 | 8.33° C | 89% | 1015.8 hPa | 0 mm | - | - | - |
| 1777917213 | 8.89° C | 89% | 1015.9 hPa | 0 mm | - | - | - |
* Rain latest hour (hover to see other rain measurements)
** Current wind speed in m/s (hover to see current wind gust speed)